Lafayette, IN

5:06 AM EDT on August 22, 2014 (GMT -0400)
Prophet's Ridge | Change Station
CLOSE
Current Station
Personal Weather Station
Location: West Lafayette, IN
Elevation: 679 ft
Nearby Weather Stations

Elev 679 ft 40.48 °N, 86.89 °W | Updated 8 seconds ago

Light Rain
Light Rain
75.2 °F
Feels Like 74 °F
N
0.0
Wind Variable Wind from North
Gusts 0.0 mph

Today
High -- | Low -- °F
--% Chance of Precip.
Yesterday
High -- | Low -- °F
Precip. -- in
7:05 AM 8:34 PM
Waning Crescent, 9% visible
Pressure 29.88 in
Visibility 9.0 miles
Clouds Scattered Clouds 10000 ft
Mostly Cloudy 12000 ft
Heat Index 74 °F
Dew Point 74 °F
Humidity 95%
Rainfall 0.00 in
Snow Depth Not available.
UV 0 out of 12
Pollen 9.30 out of 12
Air Quality Not available.
Flu Activity Not available.
METAR KLAF 220854Z AUTO 21004KT 9SM -RA SCT100 BKN120 24/23 A2990 RMK AO2 LTG DSNT N AND NE RAB41 SLP118 P0000 60000 T02440233 56014

More Conditions Fewer Conditions

Pressure 29.88 in
Visibility 9.0 miles
Clouds Scattered Clouds 10000 ft
Mostly Cloudy 12000 ft
Heat Index 74 °F
Dew Point 74 °F
Humidity 95%
Rainfall 0.00 in
Snow Depth Not available.
UV 0 out of 12
Pollen 9.30 out of 12
Air Quality Not available.
Flu Activity Not available.
METAR KLAF 220854Z AUTO 21004KT 9SM -RA SCT100 BKN120 24/23 A2990 RMK AO2 LTG DSNT N AND NE RAB41 SLP118 P0000 60000 T02440233 56014

More Conditions Fewer Conditions

10-Day Weather Forecast

Almanac

Astronomy

Aug. 22, 2014 Rise Set
Actual Time 7:05 AM EDT 8:34 PM EDT
Civil Twilight 6:36 AM EDT 9:03 PM EDT
Nautical Twilight 6:02 AM EDT 9:37 PM EDT
Astronomical Twilight 5:25 AM EDT 10:14 PM EDT
Moon 4:27 AM EDT 6:43 PM EDT
Length of Visible Light 14h 26m
Length of Day
13h 29m
Tomorrow will be 2m 27s shorter.
Waning Crescent, 9% of the Moon is Illuminated
Today
Waning Crescent
Aug 25
New
Sep 2
First Quarter
Sep 8
Full
Sep 15
Last Quarter

Today's Extremes

State Highs State Lows

Community

WunderPhotos

Upload Photos

1,746,146 photos uploaded!

Nearby

Snow Depth

Station Depth Elevation
No new snow has been reported.

Earthquake Activity

City Distance Mag. Time & Date
No recent earthquake activity has been reported nearby.
Minimum magnitude displayed is 2.5.

Coastal Water Temperatures

Place Temperature
No Stations Reporting

Nearby Weather Stations